KSFB

Orlando Sanford International

Airport
ICAO code
KSFB
Summary
ICAO Region
NAM
ICAO Territory
Location

Orlando, Florida,

Coordinates
28° 46' 40" N , 81° 14' 15" W
KCC
Metar
KSFB 171153Z 10006KT 10SM CLR 25/23 A3005 RMK AO2 SLP175 70065 T02500228 10250 20233 53006

Description

International airport 25 nm north east of Orlando, Florida, USA. Sanford is Orlando's secondary airport (primary is Orlando International Airport) but is, because of the amount of flight training, one of the busiest airports in the world in terms of take-offs and landings. Served by many British charter operators.

Climatology

Humid “subtropical” climate (Köppen climate classification Cfa) - characterized by hot, humid summers and cool winters. From October to March the temperatures are more moderate and rain less frequent. Most summer rainfall occurs during thunderstorms and occasional tropical storms (hurricanes).

Runways

Designator Length Width Surface Rops
09R/27L 1067 23 ASP Yes/Yes
09C/27C 1091 23 ASP Yes/Yes
18/36 1830 46 PEM Yes/Yes
09L/27R 2926 46 ASP Yes/Yes

Airport map

Aerial View

SKYbrary Partners:

Safety knowledge contributed by: